createdAt,value
2022-11-02T00:01:43.198Z,22.50
2022-11-02T00:04:16.241Z,22.50
2022-11-02T00:06:49.234Z,22.40
2022-11-02T00:09:22.197Z,22.40
2022-11-02T00:11:55.167Z,22.50
2022-11-02T00:14:28.050Z,22.50
2022-11-02T00:17:01.530Z,22.40
2022-11-02T00:19:34.683Z,22.40
2022-11-02T00:22:08.290Z,22.40
2022-11-02T00:24:41.317Z,22.40
2022-11-02T00:27:14.964Z,22.40
2022-11-02T00:29:48.110Z,22.40
2022-11-02T00:32:21.582Z,22.40
2022-11-02T00:34:55.138Z,22.40
2022-11-02T00:37:29.293Z,22.40
2022-11-02T00:40:02.446Z,22.40
2022-11-02T00:42:38.436Z,22.40
2022-11-02T00:45:13.186Z,22.30
2022-11-02T00:47:46.198Z,22.30
2022-11-02T00:50:19.242Z,22.20
2022-11-02T00:52:52.207Z,22.20
2022-11-02T00:55:25.586Z,22.20
2022-11-02T00:57:58.565Z,22.20
2022-11-02T01:00:36.238Z,22.20
2022-11-02T01:03:09.378Z,22.20
2022-11-02T01:05:42.873Z,22.20
2022-11-02T01:08:15.951Z,22.20
2022-11-02T01:10:48.927Z,22.20
2022-11-02T01:13:21.843Z,22.20
2022-11-02T01:15:55.234Z,22.20
2022-11-02T01:18:28.196Z,22.10
2022-11-02T01:21:04.070Z,22.10
2022-11-02T01:23:38.800Z,22.20
2022-11-02T01:26:15.228Z,22.20
2022-11-02T01:28:48.462Z,22.20
2022-11-02T01:31:23.121Z,22.20
2022-11-02T01:33:56.038Z,22.20
2022-11-02T01:36:29.024Z,22.20
2022-11-02T01:39:02.758Z,22.20
2022-11-02T01:41:36.256Z,22.10
2022-11-02T01:44:11.264Z,22.10
2022-11-02T01:46:45.782Z,22.10
2022-11-02T01:49:20.459Z,22.10
2022-11-02T01:52:10.470Z,22.10
2022-11-02T01:54:45.219Z,22.10
2022-11-02T01:57:23.115Z,22.10
2022-11-02T02:00:10.034Z,22.10
2022-11-02T02:02:47.435Z,22.10
2022-11-02T02:05:21.774Z,22.10
2022-11-02T02:07:55.732Z,22.00
2022-11-02T02:10:28.593Z,22.00
2022-11-02T02:13:01.624Z,22.00
2022-11-02T02:15:48.272Z,22.00
2022-11-02T02:18:25.917Z,22.00
2022-11-02T02:21:09.905Z,22.00
2022-11-02T02:23:47.834Z,21.90
2022-11-02T02:26:25.674Z,21.90
2022-11-02T02:29:15.510Z,21.90
2022-11-02T02:31:53.593Z,21.90
2022-11-02T02:34:30.336Z,21.80
2022-11-02T02:37:05.199Z,21.80
2022-11-02T02:39:54.743Z,21.80
2022-11-02T02:42:29.490Z,21.80
2022-11-02T02:45:29.809Z,21.80
2022-11-02T02:48:05.274Z,21.80
2022-11-02T02:50:40.100Z,21.70
2022-11-02T02:53:18.349Z,21.70
2022-11-02T02:55:59.332Z,21.70
2022-11-02T02:58:35.882Z,21.60
2022-11-02T03:01:11.263Z,21.60
2022-11-02T03:03:45.978Z,21.60
2022-11-02T03:06:24.179Z,21.50
2022-11-02T03:09:07.958Z,21.50
2022-11-02T03:11:42.773Z,21.50
2022-11-02T03:14:23.933Z,21.50
2022-11-02T03:17:19.713Z,21.50
2022-11-02T03:19:57.658Z,21.40
2022-11-02T03:22:47.756Z,21.40
2022-11-02T03:25:31.677Z,21.30
2022-11-02T03:28:09.614Z,21.20
2022-11-02T03:30:44.250Z,21.20
2022-11-02T03:33:27.724Z,21.20
2022-11-02T03:36:14.938Z,21.20
2022-11-02T03:38:52.294Z,21.20
2022-11-02T03:41:25.781Z,21.20
2022-11-02T03:44:00.374Z,21.10
2022-11-02T03:46:34.250Z,21.10
2022-11-02T03:49:09.546Z,21.10
2022-11-02T03:51:44.550Z,21.00
2022-11-02T03:54:25.635Z,21.00
2022-11-02T03:57:00.696Z,21.00
2022-11-02T03:59:34.891Z,20.90
2022-11-02T04:02:07.966Z,20.90
2022-11-02T04:04:42.973Z,20.90
2022-11-02T04:07:16.399Z,20.90
2022-11-02T04:09:55.810Z,20.90
2022-11-02T04:12:48.724Z,20.90
2022-11-02T04:15:21.987Z,20.80
2022-11-02T04:18:12.202Z,20.80
2022-11-02T04:20:51.345Z,20.70
2022-11-02T04:23:41.801Z,20.70
2022-11-02T04:26:14.689Z,20.70
2022-11-02T04:28:49.720Z,20.70
2022-11-02T04:31:21.869Z,20.70
2022-11-02T04:33:54.909Z,20.70
2022-11-02T04:36:31.385Z,20.60
2022-11-02T04:39:07.021Z,20.60
2022-11-02T04:41:47.150Z,20.60
2022-11-02T04:44:23.657Z,20.60
2022-11-02T04:46:55.880Z,20.60
2022-11-02T04:49:28.943Z,20.60
2022-11-02T04:52:01.903Z,20.60
2022-11-02T04:54:34.950Z,20.60
2022-11-02T04:57:08.200Z,20.60
2022-11-02T04:59:41.652Z,20.60
2022-11-02T05:02:14.684Z,20.60
2022-11-02T05:04:50.000Z,20.60
2022-11-02T05:07:23.725Z,20.60
2022-11-02T05:09:57.222Z,20.60
2022-11-02T05:12:30.218Z,20.50
2022-11-02T05:15:04.500Z,20.50
2022-11-02T05:17:39.785Z,20.50
2022-11-02T05:20:33.515Z,20.50
2022-11-02T05:23:03.067Z,20.40
2022-11-02T05:25:36.648Z,20.40
2022-11-02T05:28:10.287Z,20.40
2022-11-02T05:30:49.872Z,20.40
2022-11-02T05:33:27.936Z,20.40
2022-11-02T05:36:01.592Z,20.40
2022-11-02T05:38:37.061Z,20.30
2022-11-02T05:41:10.213Z,20.30
2022-11-02T05:43:46.342Z,20.30
2022-11-02T05:46:23.102Z,20.30
2022-11-02T05:48:56.302Z,20.30
2022-11-02T05:51:29.252Z,20.30
2022-11-02T05:54:03.833Z,20.30
2022-11-02T05:56:37.324Z,20.30
2022-11-02T05:59:10.658Z,20.30
2022-11-02T06:01:47.004Z,20.30
2022-11-02T06:04:30.142Z,20.30
2022-11-02T06:07:09.977Z,20.20
2022-11-02T06:09:44.459Z,20.20
2022-11-02T06:12:23.654Z,20.20
2022-11-02T06:15:04.225Z,20.20
2022-11-02T06:17:44.009Z,20.10
2022-11-02T06:20:21.097Z,20.10
2022-11-02T06:22:54.558Z,20.10
2022-11-02T06:25:29.434Z,20.10
2022-11-02T06:28:02.734Z,20.10
2022-11-02T06:30:37.417Z,20.10
2022-11-02T06:33:14.116Z,20.10
2022-11-02T06:35:51.900Z,20.10
2022-11-02T06:38:29.549Z,20.00
2022-11-02T06:41:08.076Z,20.00
2022-11-02T06:43:50.989Z,20.10
2022-11-02T06:46:24.248Z,20.00
2022-11-02T06:49:02.002Z,20.00
2022-11-02T06:51:36.878Z,20.00
2022-11-02T06:54:10.288Z,20.00
2022-11-02T06:56:43.333Z,20.00
2022-11-02T06:59:17.061Z,20.00
2022-11-02T07:01:51.405Z,20.00
2022-11-02T07:04:24.543Z,20.00
2022-11-02T07:06:57.603Z,20.00
2022-11-02T07:09:30.773Z,19.90
2022-11-02T07:12:09.893Z,20.00
2022-11-02T07:14:44.161Z,20.00
2022-11-02T07:17:17.119Z,20.00
2022-11-02T07:19:50.067Z,20.00
2022-11-02T07:22:26.030Z,19.90
2022-11-02T07:24:59.573Z,19.90
2022-11-02T07:27:32.836Z,20.00
2022-11-02T07:30:05.981Z,19.90
2022-11-02T07:32:43.188Z,19.90
2022-11-02T07:35:19.391Z,19.90
2022-11-02T07:38:02.187Z,19.90
2022-11-02T07:40:42.359Z,19.90
2022-11-02T07:43:15.793Z,19.80
2022-11-02T07:48:46.223Z,19.80
2022-11-02T07:51:18.999Z,19.80
2022-11-02T07:53:53.898Z,19.80
2022-11-02T07:56:36.820Z,19.80
2022-11-02T07:59:10.236Z,19.80
2022-11-02T08:04:33.870Z,19.80
2022-11-02T08:07:07.022Z,19.70
2022-11-02T08:09:44.789Z,19.70
2022-11-02T08:12:18.145Z,19.70
2022-11-02T08:20:56.355Z,19.70
2022-11-02T08:30:57.562Z,19.70
2022-11-02T08:40:06.639Z,19.60
2022-11-02T08:52:17.935Z,19.50
2022-11-02T08:54:50.773Z,19.50
2022-11-02T08:57:25.048Z,19.50
2022-11-02T09:00:11.074Z,19.50
2022-11-02T09:06:18.197Z,19.50
2022-11-02T09:09:03.912Z,19.50
2022-11-02T09:14:50.907Z,19.50
2022-11-02T09:26:29.392Z,19.50
2022-11-02T09:29:15.327Z,19.50
2022-11-02T09:31:54.739Z,19.50
2022-11-02T09:34:50.610Z,19.50
2022-11-02T09:37:19.694Z,19.50
2022-11-02T09:40:06.646Z,19.50
2022-11-02T09:42:57.782Z,19.50
2022-11-02T09:45:43.420Z,19.50
2022-11-02T09:48:28.165Z,19.50
2022-11-02T09:51:19.335Z,19.50
2022-11-02T09:54:01.564Z,19.50
2022-11-02T09:56:36.024Z,19.50
2022-11-02T09:59:11.095Z,19.40
2022-11-02T10:02:05.884Z,19.40
2022-11-02T10:04:52.733Z,19.40
2022-11-02T10:07:47.265Z,19.40
2022-11-02T10:10:22.299Z,19.40
2022-11-02T10:13:22.038Z,19.40
2022-11-02T10:16:08.659Z,19.40
2022-11-02T10:18:51.138Z,19.30
2022-11-02T10:21:43.890Z,19.40
2022-11-02T10:24:43.911Z,19.40
2022-11-02T10:27:33.600Z,19.30
2022-11-02T10:30:20.278Z,19.30
2022-11-02T10:33:11.770Z,19.30
2022-11-02T10:51:50.529Z,19.20
2022-11-02T10:54:56.874Z,19.20
2022-11-02T10:57:37.996Z,19.20
2022-11-02T11:01:08.677Z,19.20
2022-11-02T11:03:38.923Z,19.20
2022-11-02T11:06:16.859Z,19.20
2022-11-02T11:08:55.558Z,19.20
2022-11-02T11:11:37.289Z,19.20
2022-11-02T11:19:59.371Z,19.20
2022-11-02T11:22:48.776Z,19.20
2022-11-02T11:26:03.539Z,19.20
2022-11-02T11:28:53.990Z,19.20
2022-11-02T11:31:26.124Z,19.10
2022-11-02T11:34:03.934Z,19.10
2022-11-02T11:36:42.950Z,19.10
2022-11-02T11:39:36.752Z,19.10
2022-11-02T11:42:17.116Z,19.10
2022-11-02T11:48:20.506Z,19.10
2022-11-02T11:51:25.713Z,19.10
2022-11-02T11:53:43.969Z,19.10
2022-11-02T11:56:19.189Z,19.10
2022-11-02T11:58:54.363Z,19.10
2022-11-02T12:01:27.810Z,19.10
2022-11-02T12:04:18.491Z,19.10
2022-11-02T12:07:10.329Z,19.10
2022-11-02T12:10:02.073Z,19.10
2022-11-02T12:12:37.174Z,19.10
2022-11-02T12:15:39.323Z,19.10
2022-11-02T12:18:28.909Z,19.10
2022-11-02T12:21:29.440Z,19.10
2022-11-02T12:24:13.424Z,19.10
2022-11-02T12:27:23.797Z,19.10
2022-11-02T12:30:23.169Z,19.10
2022-11-02T12:33:32.923Z,19.10
2022-11-02T12:36:23.580Z,19.00
2022-11-02T12:39:02.220Z,19.00
2022-11-02T12:41:55.765Z,19.00
2022-11-02T12:44:48.242Z,19.00
2022-11-02T12:47:29.622Z,19.10
2022-11-02T12:50:36.395Z,19.10
2022-11-02T12:53:15.033Z,19.10
2022-11-02T12:55:55.201Z,19.10
2022-11-02T12:58:29.540Z,19.10
2022-11-02T13:01:19.092Z,19.10
2022-11-02T13:04:06.794Z,19.10
2022-11-02T13:06:44.996Z,19.00
2022-11-02T13:09:39.421Z,19.00
2022-11-02T13:12:20.726Z,19.00
2022-11-02T13:15:11.989Z,19.00
2022-11-02T13:17:46.863Z,19.00
2022-11-02T13:20:35.247Z,19.00
2022-11-02T13:23:10.859Z,19.00
2022-11-02T13:25:53.539Z,19.00
2022-11-02T13:28:52.916Z,19.00
2022-11-02T13:31:31.399Z,19.00
2022-11-02T13:34:10.423Z,19.00
2022-11-02T13:36:44.098Z,19.00
2022-11-02T13:39:40.750Z,19.00
2022-11-02T13:51:55.532Z,19.00
2022-11-02T13:54:37.696Z,19.00
2022-11-02T13:57:31.385Z,19.00
2022-11-02T14:03:02.492Z,19.00
2022-11-02T14:14:52.135Z,19.00
2022-11-02T14:20:28.060Z,19.00
2022-11-02T14:26:19.505Z,19.00
2022-11-02T14:34:37.746Z,19.00
2022-11-02T14:37:33.195Z,19.00
2022-11-02T14:50:06.618Z,19.00
2022-11-02T14:52:44.161Z,19.00
2022-11-02T15:01:24.632Z,19.00
2022-11-02T15:07:00.669Z,19.00
2022-11-02T15:10:28.082Z,19.00
2022-11-02T15:19:41.630Z,19.00
2022-11-02T15:22:40.518Z,19.00
2022-11-02T15:43:37.339Z,19.10
2022-11-02T15:46:30.690Z,19.10
2022-11-02T15:49:06.803Z,19.10
2022-11-02T15:51:58.646Z,19.10
2022-11-02T15:54:51.508Z,19.10
2022-11-02T15:57:52.934Z,19.10
2022-11-02T16:00:31.147Z,19.10
2022-11-02T16:03:11.788Z,19.10
2022-11-02T16:05:58.302Z,19.10
2022-11-02T16:08:47.105Z,19.20
2022-11-02T16:11:23.537Z,19.20
2022-11-02T16:14:08.683Z,19.20
2022-11-02T16:16:37.111Z,19.20
2022-11-02T16:19:11.285Z,19.20
2022-11-02T16:21:44.224Z,19.20
2022-11-02T16:24:17.454Z,19.20
2022-11-02T16:26:51.924Z,19.20
2022-11-02T16:29:28.773Z,19.20
2022-11-02T16:32:01.160Z,19.20
2022-11-02T16:34:43.285Z,19.20
2022-11-02T16:37:25.383Z,19.20
2022-11-02T16:42:55.748Z,19.20
2022-11-02T16:45:43.599Z,19.20
2022-11-02T16:48:33.382Z,19.20
2022-11-02T16:51:22.969Z,19.20
2022-11-02T16:53:56.925Z,19.10
2022-11-02T16:56:34.978Z,19.20
2022-11-02T16:59:12.285Z,19.20
2022-11-02T17:01:46.588Z,19.20
2022-11-02T17:04:41.198Z,19.20
2022-11-02T17:07:21.987Z,19.20
2022-11-02T17:10:02.221Z,19.20
2022-11-02T17:12:40.544Z,19.20
2022-11-02T17:15:23.950Z,19.20
2022-11-02T17:21:30.153Z,19.20
2022-11-02T17:24:10.676Z,19.20
2022-11-02T17:26:50.893Z,19.20
2022-11-02T17:29:34.405Z,19.30
2022-11-02T17:32:08.466Z,19.30
2022-11-02T17:35:21.856Z,19.30
2022-11-02T17:37:35.942Z,19.30
2022-11-02T17:40:10.312Z,19.30
2022-11-02T17:43:04.353Z,19.30
2022-11-02T17:45:39.471Z,19.30
2022-11-02T17:48:13.965Z,19.30
2022-11-02T17:51:05.517Z,19.40
2022-11-02T17:53:40.649Z,19.40
2022-11-02T17:56:14.660Z,19.40
2022-11-02T17:58:52.796Z,19.40
2022-11-02T18:01:24.846Z,19.40
2022-11-02T18:03:57.868Z,19.40
2022-11-02T18:06:31.839Z,19.40
2022-11-02T18:12:29.322Z,19.50
2022-11-02T18:15:20.236Z,19.50
2022-11-02T18:17:53.522Z,19.50
2022-11-02T18:20:26.910Z,19.50
2022-11-02T18:23:02.474Z,19.50
2022-11-02T18:25:45.067Z,19.50
2022-11-02T18:28:17.994Z,19.50
2022-11-02T18:30:51.344Z,19.50
2022-11-02T18:33:26.838Z,19.60
2022-11-02T18:36:20.411Z,19.60
2022-11-02T18:39:08.245Z,19.60
2022-11-02T18:42:09.755Z,19.60
2022-11-02T18:44:29.128Z,19.60
2022-11-02T18:47:01.835Z,19.60
2022-11-02T18:49:34.813Z,19.60
2022-11-02T18:52:12.683Z,19.60
2022-11-02T18:54:59.530Z,19.70
2022-11-02T18:57:27.913Z,19.70
2022-11-02T18:59:58.150Z,19.70
2022-11-02T19:02:32.523Z,19.70
2022-11-02T19:05:05.817Z,19.70
2022-11-02T19:08:02.205Z,19.70
2022-11-02T19:13:45.301Z,19.70
2022-11-02T19:16:42.591Z,19.70
2022-11-02T19:19:07.976Z,19.70
2022-11-02T19:21:41.634Z,19.70
2022-11-02T19:24:14.803Z,19.70
2022-11-02T19:26:47.773Z,19.70
2022-11-02T19:29:20.696Z,19.80
2022-11-02T19:31:53.851Z,19.80
2022-11-02T19:34:28.958Z,19.80
2022-11-02T19:37:07.378Z,19.80
2022-11-02T19:39:40.824Z,19.80
2022-11-02T19:42:17.835Z,19.80
2022-11-02T19:44:53.376Z,19.80
2022-11-02T19:47:27.345Z,19.80
2022-11-02T19:50:00.553Z,19.80
2022-11-02T19:52:33.867Z,19.80
2022-11-02T19:55:06.760Z,19.90
2022-11-02T20:01:22.981Z,19.90
2022-11-02T20:17:31.825Z,19.80
2022-11-02T20:26:16.078Z,19.80
2022-11-02T20:31:52.872Z,19.80
2022-11-02T20:38:07.176Z,19.90
2022-11-02T20:40:47.975Z,19.90
2022-11-02T20:43:33.420Z,19.90
2022-11-02T20:46:36.426Z,19.90
2022-11-02T20:49:14.396Z,19.90
2022-11-02T21:01:05.798Z,20.00
2022-11-02T21:06:37.809Z,20.10
2022-11-02T21:09:33.208Z,20.10
2022-11-02T21:14:57.913Z,20.10
2022-11-02T21:17:37.349Z,20.10
2022-11-02T21:23:05.610Z,20.10
2022-11-02T21:25:40.333Z,20.10
2022-11-02T21:28:13.442Z,20.10
2022-11-02T21:30:54.390Z,20.10
2022-11-02T21:33:28.765Z,20.10
2022-11-02T21:36:04.702Z,20.10
2022-11-02T21:38:42.001Z,20.10
2022-11-02T21:41:16.091Z,20.10
2022-11-02T21:44:08.761Z,20.10
2022-11-02T21:46:45.329Z,20.10
2022-11-02T21:49:17.510Z,20.10
2022-11-02T21:51:50.759Z,20.10
2022-11-02T21:54:29.620Z,20.10
2022-11-02T21:57:11.080Z,20.20
2022-11-02T21:59:49.127Z,20.20
2022-11-02T22:02:33.404Z,20.20
2022-11-02T22:05:06.591Z,20.20
2022-11-02T22:07:46.700Z,20.10
2022-11-02T22:10:18.189Z,20.10
2022-11-02T22:13:32.649Z,20.10
2022-11-02T22:16:19.402Z,20.20
2022-11-02T22:18:59.900Z,20.20
2022-11-02T22:21:34.430Z,20.20
2022-11-02T22:24:10.263Z,20.30
2022-11-02T22:26:44.233Z,20.30
2022-11-02T22:29:20.393Z,20.30
2022-11-02T22:31:53.508Z,20.40
2022-11-02T22:34:26.548Z,20.40
2022-11-02T22:37:07.425Z,20.40
2022-11-02T22:39:39.975Z,20.40
2022-11-02T22:45:06.166Z,20.50
2022-11-02T22:47:39.247Z,20.50
2022-11-02T22:50:26.733Z,20.60
2022-11-02T22:56:45.611Z,20.60
2022-11-02T22:59:24.772Z,20.50
2022-11-02T23:11:06.493Z,20.50
2022-11-02T23:13:41.971Z,20.50
2022-11-02T23:17:08.171Z,20.50
2022-11-02T23:19:41.284Z,20.60
2022-11-02T23:25:27.320Z,20.60
2022-11-02T23:31:14.214Z,20.60
2022-11-02T23:34:08.370Z,20.60
2022-11-02T23:36:40.493Z,20.60
2022-11-02T23:39:31.433Z,20.60
2022-11-02T23:42:15.510Z,20.60
2022-11-02T23:44:47.975Z,20.50
2022-11-02T23:47:25.206Z,20.50
2022-11-02T23:50:02.349Z,20.50
2022-11-02T23:52:52.725Z,20.50
2022-11-02T23:55:43.079Z,20.60
2022-11-02T23:58:16.383Z,20.60
